sensor_id;sensor_type;location;lat;lon;timestamp;pressure;altitude;pressure_sealevel;temperature;humidity
80699;BME280;70062;51.658;5.658;2023-07-29T00:00:19;100619.91;;;18.85;77.19
80699;BME280;70062;51.658;5.658;2023-07-29T00:02:45;100612.77;;;18.83;77.39
80699;BME280;70062;51.658;5.658;2023-07-29T00:05:11;100604.39;;;18.80;77.18
80699;BME280;70062;51.658;5.658;2023-07-29T00:07:36;100597.21;;;18.77;77.48
80699;BME280;70062;51.658;5.658;2023-07-29T00:10:02;100593.50;;;18.72;77.34
80699;BME280;70062;51.658;5.658;2023-07-29T00:12:28;100595.16;;;18.65;77.43
80699;BME280;70062;51.658;5.658;2023-07-29T00:14:54;100588.25;;;18.57;77.55
80699;BME280;70062;51.658;5.658;2023-07-29T00:17:19;100581.09;;;18.54;77.78
80699;BME280;70062;51.658;5.658;2023-07-29T00:19:45;100577.92;;;18.51;77.96
80699;BME280;70062;51.658;5.658;2023-07-29T00:22:11;100569.90;;;18.49;77.84
80699;BME280;70062;51.658;5.658;2023-07-29T00:24:36;100571.10;;;18.48;78.05
80699;BME280;70062;51.658;5.658;2023-07-29T00:27:02;100564.13;;;18.46;78.29
80699;BME280;70062;51.658;5.658;2023-07-29T00:29:27;100560.80;;;18.44;78.12
80699;BME280;70062;51.658;5.658;2023-07-29T00:31:52;100559.20;;;18.41;78.36
80699;BME280;70062;51.658;5.658;2023-07-29T00:34:18;100561.79;;;18.39;78.64
80699;BME280;70062;51.658;5.658;2023-07-29T00:36:47;100568.39;;;18.40;78.65
80699;BME280;70062;51.658;5.658;2023-07-29T00:39:12;100569.96;;;18.40;78.74
80699;BME280;70062;51.658;5.658;2023-07-29T00:41:38;100571.72;;;18.41;78.84
80699;BME280;70062;51.658;5.658;2023-07-29T00:44:03;100573.83;;;18.44;78.94
80699;BME280;70062;51.658;5.658;2023-07-29T00:46:29;100577.18;;;18.47;78.93
80699;BME280;70062;51.658;5.658;2023-07-29T00:48:55;100580.70;;;18.50;79.09
80699;BME280;70062;51.658;5.658;2023-07-29T00:51:21;100576.05;;;18.54;79.24
80699;BME280;70062;51.658;5.658;2023-07-29T00:53:46;100574.34;;;18.57;79.23
80699;BME280;70062;51.658;5.658;2023-07-29T00:56:11;100567.40;;;18.57;79.29
80699;BME280;70062;51.658;5.658;2023-07-29T00:58:37;100560.27;;;18.59;79.05
80699;BME280;70062;51.658;5.658;2023-07-29T01:01:02;100558.93;;;18.60;79.15
80699;BME280;70062;51.658;5.658;2023-07-29T01:03:28;100560.52;;;18.62;79.07
80699;BME280;70062;51.658;5.658;2023-07-29T01:08:54;100554.11;;;18.64;78.80
80699;BME280;70062;51.658;5.658;2023-07-29T01:11:35;100549.95;;;18.65;78.78
80699;BME280;70062;51.658;5.658;2023-07-29T01:16:42;100551.52;;;18.65;78.95
80699;BME280;70062;51.658;5.658;2023-07-29T01:21:50;100551.60;;;18.59;78.90
80699;BME280;70062;51.658;5.658;2023-07-29T01:24:16;100553.63;;;18.54;78.87
80699;BME280;70062;51.658;5.658;2023-07-29T01:26:41;100551.81;;;18.48;78.95
80699;BME280;70062;51.658;5.658;2023-07-29T01:29:07;100552.65;;;18.45;78.98
80699;BME280;70062;51.658;5.658;2023-07-29T01:31:43;100556.46;;;18.44;79.27
80699;BME280;70062;51.658;5.658;2023-07-29T01:34:17;100558.71;;;18.44;79.34
80699;BME280;70062;51.658;5.658;2023-07-29T01:36:47;100558.85;;;18.41;79.43
80699;BME280;70062;51.658;5.658;2023-07-29T01:39:15;100561.73;;;18.34;79.52
80699;BME280;70062;51.658;5.658;2023-07-29T01:41:43;100560.23;;;18.27;79.63
80699;BME280;70062;51.658;5.658;2023-07-29T01:44:09;100561.61;;;18.26;79.77
80699;BME280;70062;51.658;5.658;2023-07-29T01:46:36;100555.34;;;18.25;79.81
80699;BME280;70062;51.658;5.658;2023-07-29T01:49:01;100557.59;;;18.24;79.86
80699;BME280;70062;51.658;5.658;2023-07-29T01:51:27;100555.54;;;18.26;80.21
80699;BME280;70062;51.658;5.658;2023-07-29T01:53:52;100555.61;;;18.32;80.39
80699;BME280;70062;51.658;5.658;2023-07-29T01:56:18;100556.90;;;18.38;80.39
80699;BME280;70062;51.658;5.658;2023-07-29T01:58:43;100555.02;;;18.41;80.28
80699;BME280;70062;51.658;5.658;2023-07-29T02:01:09;100553.85;;;18.44;80.52
80699;BME280;70062;51.658;5.658;2023-07-29T02:03:34;100558.58;;;18.48;80.43
80699;BME280;70062;51.658;5.658;2023-07-29T02:05:59;100558.14;;;18.53;80.26
80699;BME280;70062;51.658;5.658;2023-07-29T02:08:25;100565.31;;;18.58;80.23
80699;BME280;70062;51.658;5.658;2023-07-29T02:10:50;100566.79;;;18.62;80.14
80699;BME280;70062;51.658;5.658;2023-07-29T02:13:15;100564.90;;;18.64;80.10
80699;BME280;70062;51.658;5.658;2023-07-29T02:15:41;100558.30;;;18.66;79.96
80699;BME280;70062;51.658;5.658;2023-07-29T02:18:06;100557.41;;;18.63;79.76
80699;BME280;70062;51.658;5.658;2023-07-29T02:20:32;100558.77;;;18.61;79.31
80699;BME280;70062;51.658;5.658;2023-07-29T02:22:57;100561.67;;;18.59;78.95
80699;BME280;70062;51.658;5.658;2023-07-29T02:25:23;100563.30;;;18.61;78.60
80699;BME280;70062;51.658;5.658;2023-07-29T02:27:48;100558.98;;;18.63;78.26
80699;BME280;70062;51.658;5.658;2023-07-29T02:30:13;100554.83;;;18.64;78.07
80699;BME280;70062;51.658;5.658;2023-07-29T02:32:39;100549.77;;;18.64;77.73
80699;BME280;70062;51.658;5.658;2023-07-29T02:35:05;100540.05;;;18.64;77.31
80699;BME280;70062;51.658;5.658;2023-07-29T02:37:30;100533.93;;;18.63;77.02
80699;BME280;70062;51.658;5.658;2023-07-29T02:39:56;100536.88;;;18.62;76.76
80699;BME280;70062;51.658;5.658;2023-07-29T02:42:21;100542.28;;;18.63;76.58
80699;BME280;70062;51.658;5.658;2023-07-29T02:44:46;100547.14;;;18.62;76.31
80699;BME280;70062;51.658;5.658;2023-07-29T02:47:12;100541.55;;;18.61;76.23
80699;BME280;70062;51.658;5.658;2023-07-29T02:49:37;100546.58;;;18.60;76.07
80699;BME280;70062;51.658;5.658;2023-07-29T02:52:03;100541.14;;;18.57;76.00
80699;BME280;70062;51.658;5.658;2023-07-29T02:54:28;100539.36;;;18.53;75.88
80699;BME280;70062;51.658;5.658;2023-07-29T02:56:54;100539.48;;;18.48;75.64
80699;BME280;70062;51.658;5.658;2023-07-29T02:59:19;100535.78;;;18.44;75.63
80699;BME280;70062;51.658;5.658;2023-07-29T03:01:45;100536.75;;;18.39;75.56
80699;BME280;70062;51.658;5.658;2023-07-29T03:04:10;100541.04;;;18.35;75.33
80699;BME280;70062;51.658;5.658;2023-07-29T03:06:38;100540.30;;;18.30;75.42
80699;BME280;70062;51.658;5.658;2023-07-29T03:09:03;100542.69;;;18.27;75.48
80699;BME280;70062;51.658;5.658;2023-07-29T03:11:30;100539.19;;;18.24;75.48
80699;BME280;70062;51.658;5.658;2023-07-29T03:13:56;100539.48;;;18.21;75.54
80699;BME280;70062;51.658;5.658;2023-07-29T03:16:22;100535.61;;;18.17;75.64
80699;BME280;70062;51.658;5.658;2023-07-29T03:18:48;100536.60;;;18.13;75.74
80699;BME280;70062;51.658;5.658;2023-07-29T03:21:14;100537.77;;;18.10;75.64
80699;BME280;70062;51.658;5.658;2023-07-29T03:23:39;100539.83;;;18.08;75.91
80699;BME280;70062;51.658;5.658;2023-07-29T03:26:04;100539.98;;;18.07;75.85
80699;BME280;70062;51.658;5.658;2023-07-29T03:28:45;100539.27;;;18.06;75.95
80699;BME280;70062;51.658;5.658;2023-07-29T03:31:10;100534.42;;;18.06;75.92
80699;BME280;70062;51.658;5.658;2023-07-29T03:33:35;100529.88;;;18.04;75.74
80699;BME280;70062;51.658;5.658;2023-07-29T03:36:01;100532.27;;;18.01;75.76
80699;BME280;70062;51.658;5.658;2023-07-29T03:38:26;100536.21;;;17.97;75.75
80699;BME280;70062;51.658;5.658;2023-07-29T03:40:52;100536.30;;;17.91;75.96
80699;BME280;70062;51.658;5.658;2023-07-29T03:43:19;100544.58;;;17.87;75.98
80699;BME280;70062;51.658;5.658;2023-07-29T03:45:44;100547.65;;;17.84;76.16
80699;BME280;70062;51.658;5.658;2023-07-29T03:48:09;100547.45;;;17.81;76.22
80699;BME280;70062;51.658;5.658;2023-07-29T03:50:36;100546.73;;;17.79;76.23
80699;BME280;70062;51.658;5.658;2023-07-29T03:53:04;100549.98;;;17.77;76.17
80699;BME280;70062;51.658;5.658;2023-07-29T03:55:30;100551.33;;;17.74;76.28
80699;BME280;70062;51.658;5.658;2023-07-29T03:57:59;100552.14;;;17.70;76.38
80699;BME280;70062;51.658;5.658;2023-07-29T04:00:26;100551.68;;;17.64;76.29
80699;BME280;70062;51.658;5.658;2023-07-29T04:02:51;100551.23;;;17.58;76.48
80699;BME280;70062;51.658;5.658;2023-07-29T04:05:17;100549.60;;;17.54;76.38
80699;BME280;70062;51.658;5.658;2023-07-29T04:07:43;100546.44;;;17.52;76.43
80699;BME280;70062;51.658;5.658;2023-07-29T04:10:09;100547.07;;;17.48;76.36
80699;BME280;70062;51.658;5.658;2023-07-29T04:12:34;100530.20;;;17.46;76.55
80699;BME280;70062;51.658;5.658;2023-07-29T04:14:59;100515.20;;;17.40;76.59
80699;BME280;70062;51.658;5.658;2023-07-29T04:17:27;100508.16;;;17.35;76.72
80699;BME280;70062;51.658;5.658;2023-07-29T04:19:53;100501.83;;;17.31;76.83
80699;BME280;70062;51.658;5.658;2023-07-29T04:22:18;100505.25;;;17.28;76.63
80699;BME280;70062;51.658;5.658;2023-07-29T04:24:43;100512.35;;;17.27;76.85
80699;BME280;70062;51.658;5.658;2023-07-29T04:27:09;100511.14;;;17.28;76.82
80699;BME280;70062;51.658;5.658;2023-07-29T04:29:35;100509.40;;;17.28;76.78
80699;BME280;70062;51.658;5.658;2023-07-29T04:32:04;100514.06;;;17.26;76.80
80699;BME280;70062;51.658;5.658;2023-07-29T04:34:29;100522.17;;;17.24;76.96
80699;BME280;70062;51.658;5.658;2023-07-29T04:36:54;100541.22;;;17.22;77.07
80699;BME280;70062;51.658;5.658;2023-07-29T04:39:20;100554.02;;;17.20;77.07
80699;BME280;70062;51.658;5.658;2023-07-29T04:41:45;100561.30;;;17.19;77.11
80699;BME280;70062;51.658;5.658;2023-07-29T04:44:11;100561.64;;;17.19;77.22
80699;BME280;70062;51.658;5.658;2023-07-29T04:46:36;100569.11;;;17.19;77.16
80699;BME280;70062;51.658;5.658;2023-07-29T04:49:02;100560.98;;;17.21;77.12
80699;BME280;70062;51.658;5.658;2023-07-29T04:51:28;100556.88;;;17.25;77.13
80699;BME280;70062;51.658;5.658;2023-07-29T04:53:53;100558.34;;;17.29;77.23
80699;BME280;70062;51.658;5.658;2023-07-29T04:56:19;100562.21;;;17.31;77.18
80699;BME280;70062;51.658;5.658;2023-07-29T04:58:44;100564.05;;;17.36;77.25
80699;BME280;70062;51.658;5.658;2023-07-29T05:01:10;100567.10;;;17.42;77.32
80699;BME280;70062;51.658;5.658;2023-07-29T05:03:35;100571.38;;;17.49;77.08
80699;BME280;70062;51.658;5.658;2023-07-29T05:06:02;100565.05;;;17.55;77.02
80699;BME280;70062;51.658;5.658;2023-07-29T05:08:27;100562.05;;;17.62;76.92
80699;BME280;70062;51.658;5.658;2023-07-29T05:10:53;100558.73;;;17.71;76.68
80699;BME280;70062;51.658;5.658;2023-07-29T05:13:22;100568.89;;;17.76;76.64
80699;BME280;70062;51.658;5.658;2023-07-29T05:15:48;100571.89;;;17.79;76.34
80699;BME280;70062;51.658;5.658;2023-07-29T05:18:14;100571.06;;;17.82;76.47
80699;BME280;70062;51.658;5.658;2023-07-29T05:20:40;100563.81;;;17.85;76.20
80699;BME280;70062;51.658;5.658;2023-07-29T05:23:05;100573.05;;;17.87;75.90
80699;BME280;70062;51.658;5.658;2023-07-29T05:25:30;100582.14;;;17.90;75.89
80699;BME280;70062;51.658;5.658;2023-07-29T05:27:56;100583.61;;;17.96;75.61
80699;BME280;70062;51.658;5.658;2023-07-29T05:30:22;100593.61;;;18.04;75.43
80699;BME280;70062;51.658;5.658;2023-07-29T05:32:48;100592.86;;;18.11;75.14
80699;BME280;70062;51.658;5.658;2023-07-29T05:35:13;100597.83;;;18.18;75.08
80699;BME280;70062;51.658;5.658;2023-07-29T05:37:40;100597.36;;;18.23;74.91
80699;BME280;70062;51.658;5.658;2023-07-29T05:40:06;100593.64;;;18.30;74.73
80699;BME280;70062;51.658;5.658;2023-07-29T05:42:32;100588.69;;;18.37;74.25
80699;BME280;70062;51.658;5.658;2023-07-29T05:44:58;100580.23;;;18.41;74.20
80699;BME280;70062;51.658;5.658;2023-07-29T05:47:23;100582.70;;;18.45;73.94
80699;BME280;70062;51.658;5.658;2023-07-29T05:49:48;100579.79;;;18.48;73.92
80699;BME280;70062;51.658;5.658;2023-07-29T05:52:14;100579.30;;;18.50;73.78
80699;BME280;70062;51.658;5.658;2023-07-29T05:54:40;100583.01;;;18.54;73.63
80699;BME280;70062;51.658;5.658;2023-07-29T05:57:05;100579.98;;;18.62;73.37
80699;BME280;70062;51.658;5.658;2023-07-29T05:59:31;100581.20;;;18.75;73.11
80699;BME280;70062;51.658;5.658;2023-07-29T06:01:56;100578.22;;;18.89;72.82
80699;BME280;70062;51.658;5.658;2023-07-29T06:04:21;100580.30;;;19.03;72.47
80699;BME280;70062;51.658;5.658;2023-07-29T06:06:47;100584.44;;;19.15;71.94
80699;BME280;70062;51.658;5.658;2023-07-29T06:09:12;100584.08;;;19.33;71.84
80699;BME280;70062;51.658;5.658;2023-07-29T06:11:38;100585.68;;;19.55;71.30
80699;BME280;70062;51.658;5.658;2023-07-29T06:14:03;100587.93;;;19.73;70.89
80699;BME280;70062;51.658;5.658;2023-07-29T06:16:28;100593.25;;;19.86;70.15
80699;BME280;70062;51.658;5.658;2023-07-29T06:18:54;100587.77;;;19.98;70.20
80699;BME280;70062;51.658;5.658;2023-07-29T06:21:19;100583.66;;;20.12;69.86
80699;BME280;70062;51.658;5.658;2023-07-29T06:23:45;100583.92;;;20.30;69.33
80699;BME280;70062;51.658;5.658;2023-07-29T06:26:11;100578.13;;;20.49;68.91
80699;BME280;70062;51.658;5.658;2023-07-29T06:28:36;100577.32;;;20.65;68.17
80699;BME280;70062;51.658;5.658;2023-07-29T06:31:04;100581.88;;;20.74;67.73
80699;BME280;70062;51.658;5.658;2023-07-29T06:33:30;100586.48;;;20.86;67.61
80699;BME280;70062;51.658;5.658;2023-07-29T06:35:55;100582.85;;;20.95;67.37
80699;BME280;70062;51.658;5.658;2023-07-29T06:38:20;100584.11;;;21.13;66.74
80699;BME280;70062;51.658;5.658;2023-07-29T06:40:49;100584.33;;;21.26;66.18
80699;BME280;70062;51.658;5.658;2023-07-29T06:43:14;100586.77;;;21.24;65.24
80699;BME280;70062;51.658;5.658;2023-07-29T06:45:40;100587.23;;;21.06;65.14
80699;BME280;70062;51.658;5.658;2023-07-29T06:48:05;100587.73;;;20.91;65.75
80699;BME280;70062;51.658;5.658;2023-07-29T06:50:30;100590.80;;;20.78;65.79
80699;BME280;70062;51.658;5.658;2023-07-29T06:52:56;100601.56;;;20.64;65.75
80699;BME280;70062;51.658;5.658;2023-07-29T06:55:21;100603.47;;;20.62;66.15
80699;BME280;70062;51.658;5.658;2023-07-29T06:57:47;100605.58;;;20.66;66.01
80699;BME280;70062;51.658;5.658;2023-07-29T07:00:12;100599.48;;;20.68;65.96
80699;BME280;70062;51.658;5.658;2023-07-29T07:02:38;100598.21;;;20.58;66.23
80699;BME280;70062;51.658;5.658;2023-07-29T07:05:03;100599.27;;;20.58;66.61
80699;BME280;70062;51.658;5.658;2023-07-29T07:07:28;100597.54;;;20.62;66.44
80699;BME280;70062;51.658;5.658;2023-07-29T07:09:54;100596.33;;;20.66;66.44
80699;BME280;70062;51.658;5.658;2023-07-29T07:12:19;100598.95;;;20.65;66.34
80699;BME280;70062;51.658;5.658;2023-07-29T07:14:44;100592.34;;;20.69;66.62
80699;BME280;70062;51.658;5.658;2023-07-29T07:17:10;100598.50;;;20.81;66.53
80699;BME280;70062;51.658;5.658;2023-07-29T07:19:35;100601.00;;;20.98;66.45
80699;BME280;70062;51.658;5.658;2023-07-29T07:22:00;100605.22;;;21.07;65.99
80699;BME280;70062;51.658;5.658;2023-07-29T07:24:26;100609.79;;;21.20;65.65
80699;BME280;70062;51.658;5.658;2023-07-29T07:26:51;100609.66;;;21.32;65.32
80699;BME280;70062;51.658;5.658;2023-07-29T07:29:16;100612.46;;;21.44;65.07
80699;BME280;70062;51.658;5.658;2023-07-29T07:31:50;100610.72;;;21.64;64.45
80699;BME280;70062;51.658;5.658;2023-07-29T07:34:16;100605.29;;;21.92;64.10
80699;BME280;70062;51.658;5.658;2023-07-29T07:36:41;100607.21;;;22.13;63.28
80699;BME280;70062;51.658;5.658;2023-07-29T07:39:07;100608.20;;;22.33;62.51
80699;BME280;70062;51.658;5.658;2023-07-29T07:41:32;100613.95;;;22.40;62.33
80699;BME280;70062;51.658;5.658;2023-07-29T07:43:57;100611.30;;;22.55;62.03
80699;BME280;70062;51.658;5.658;2023-07-29T07:46:23;100614.02;;;22.81;61.90
80699;BME280;70062;51.658;5.658;2023-07-29T07:48:48;100617.63;;;22.96;60.64
80699;BME280;70062;51.658;5.658;2023-07-29T07:51:13;100620.30;;;22.87;60.85
80699;BME280;70062;51.658;5.658;2023-07-29T07:53:39;100620.16;;;22.75;61.11
80699;BME280;70062;51.658;5.658;2023-07-29T07:56:05;100621.79;;;22.60;60.83
80699;BME280;70062;51.658;5.658;2023-07-29T07:58:31;100624.97;;;22.44;60.93
80699;BME280;70062;51.658;5.658;2023-07-29T08:01:03;100629.38;;;22.28;60.93
80699;BME280;70062;51.658;5.658;2023-07-29T08:03:29;100635.17;;;22.20;61.19
80699;BME280;70062;51.658;5.658;2023-07-29T08:05:55;100639.89;;;22.21;61.45
80699;BME280;70062;51.658;5.658;2023-07-29T08:08:20;100637.09;;;22.21;61.56
80699;BME280;70062;51.658;5.658;2023-07-29T08:10:46;100637.42;;;22.26;61.53
80699;BME280;70062;51.658;5.658;2023-07-29T08:13:11;100636.17;;;22.38;61.12
80699;BME280;70062;51.658;5.658;2023-07-29T08:15:36;100636.48;;;22.49;60.67
80699;BME280;70062;51.658;5.658;2023-07-29T08:18:02;100632.80;;;22.63;60.25
80699;BME280;70062;51.658;5.658;2023-07-29T08:20:27;100627.14;;;22.82;60.14
80699;BME280;70062;51.658;5.658;2023-07-29T08:22:52;100628.48;;;22.96;59.86
80699;BME280;70062;51.658;5.658;2023-07-29T08:25:18;100626.61;;;23.16;59.63
80699;BME280;70062;51.658;5.658;2023-07-29T08:27:43;100628.22;;;23.38;59.17
80699;BME280;70062;51.658;5.658;2023-07-29T08:30:09;100636.14;;;23.61;58.60
80699;BME280;70062;51.658;5.658;2023-07-29T08:32:34;100637.41;;;23.79;57.22
80699;BME280;70062;51.658;5.658;2023-07-29T08:35:00;100639.48;;;23.81;57.31
80699;BME280;70062;51.658;5.658;2023-07-29T08:37:25;100631.82;;;23.95;56.88
80699;BME280;70062;51.658;5.658;2023-07-29T08:39:52;100630.27;;;24.10;55.94
80699;BME280;70062;51.658;5.658;2023-07-29T08:42:19;100632.34;;;24.14;55.61
80699;BME280;70062;51.658;5.658;2023-07-29T08:44:45;100639.63;;;24.22;55.32
80699;BME280;70062;51.658;5.658;2023-07-29T08:47:11;100639.27;;;24.27;54.91
80699;BME280;70062;51.658;5.658;2023-07-29T08:49:38;100643.11;;;24.31;54.83
80699;BME280;70062;51.658;5.658;2023-07-29T08:52:05;100639.61;;;24.29;54.66
80699;BME280;70062;51.658;5.658;2023-07-29T08:54:31;100638.91;;;24.26;54.65
80699;BME280;70062;51.658;5.658;2023-07-29T08:56:57;100635.64;;;24.17;54.79
80699;BME280;70062;51.658;5.658;2023-07-29T08:59:23;100637.57;;;24.18;54.73
80699;BME280;70062;51.658;5.658;2023-07-29T09:01:49;100638.06;;;24.43;54.46
80699;BME280;70062;51.658;5.658;2023-07-29T09:04:14;100628.44;;;24.70;53.81
80699;BME280;70062;51.658;5.658;2023-07-29T09:06:43;100626.58;;;24.93;53.34
80699;BME280;70062;51.658;5.658;2023-07-29T09:09:08;100625.69;;;25.08;53.24
80699;BME280;70062;51.658;5.658;2023-07-29T09:11:35;100625.10;;;25.12;52.11
80699;BME280;70062;51.658;5.658;2023-07-29T09:14:00;100628.56;;;25.16;51.85
80699;BME280;70062;51.658;5.658;2023-07-29T09:16:25;100625.82;;;25.35;51.44
80699;BME280;70062;51.658;5.658;2023-07-29T09:18:51;100620.58;;;25.44;51.28
80699;BME280;70062;51.658;5.658;2023-07-29T09:21:18;100618.50;;;25.43;51.67
80699;BME280;70062;51.658;5.658;2023-07-29T09:23:48;100625.86;;;25.54;51.77
80699;BME280;70062;51.658;5.658;2023-07-29T09:26:22;100616.45;;;25.60;50.56
80699;BME280;70062;51.658;5.658;2023-07-29T09:28:52;100610.20;;;25.55;50.82
80699;BME280;70062;51.658;5.658;2023-07-29T09:31:23;100606.44;;;25.49;50.51
80699;BME280;70062;51.658;5.658;2023-07-29T09:33:49;100604.50;;;25.38;50.81
80699;BME280;70062;51.658;5.658;2023-07-29T09:36:15;100609.54;;;25.31;50.24
80699;BME280;70062;51.658;5.658;2023-07-29T09:38:40;100611.65;;;25.07;50.15
80699;BME280;70062;51.658;5.658;2023-07-29T09:41:06;100606.16;;;24.95;50.24
80699;BME280;70062;51.658;5.658;2023-07-29T09:43:33;100602.27;;;24.99;50.74
80699;BME280;70062;51.658;5.658;2023-07-29T09:46:02;100599.53;;;25.07;50.61
80699;BME280;70062;51.658;5.658;2023-07-29T09:48:35;100603.02;;;25.20;50.73
80699;BME280;70062;51.658;5.658;2023-07-29T09:51:13;100603.04;;;25.53;50.22
80699;BME280;70062;51.658;5.658;2023-07-29T09:53:43;100608.48;;;25.75;49.51
80699;BME280;70062;51.658;5.658;2023-07-29T09:56:10;100602.95;;;26.12;48.49
80699;BME280;70062;51.658;5.658;2023-07-29T09:58:35;100601.14;;;26.33;48.15
80699;BME280;70062;51.658;5.658;2023-07-29T10:01:03;100603.35;;;26.55;47.69
80699;BME280;70062;51.658;5.658;2023-07-29T10:03:29;100606.98;;;26.75;47.15
80699;BME280;70062;51.658;5.658;2023-07-29T10:06:00;100607.44;;;26.86;46.85
80699;BME280;70062;51.658;5.658;2023-07-29T10:08:25;100613.36;;;27.07;46.13
80699;BME280;70062;51.658;5.658;2023-07-29T10:10:51;100616.14;;;27.31;45.46
80699;BME280;70062;51.658;5.658;2023-07-29T10:13:18;100618.27;;;27.53;44.86
80699;BME280;70062;51.658;5.658;2023-07-29T10:15:45;100616.73;;;27.87;44.66
80699;BME280;70062;51.658;5.658;2023-07-29T10:18:11;100616.52;;;28.23;44.02
80699;BME280;70062;51.658;5.658;2023-07-29T10:20:38;100612.62;;;28.49;43.04
80699;BME280;70062;51.658;5.658;2023-07-29T10:23:07;100612.55;;;28.58;42.72
80699;BME280;70062;51.658;5.658;2023-07-29T10:25:38;100603.91;;;28.69;42.30
80699;BME280;70062;51.658;5.658;2023-07-29T10:28:06;100605.86;;;28.63;41.75
80699;BME280;70062;51.658;5.658;2023-07-29T10:30:32;100604.94;;;28.52;42.62
80699;BME280;70062;51.658;5.658;2023-07-29T10:32:59;100598.48;;;28.61;41.98
80699;BME280;70062;51.658;5.658;2023-07-29T10:35:26;100599.55;;;28.73;41.56
80699;BME280;70062;51.658;5.658;2023-07-29T10:37:52;100597.75;;;28.87;41.20
80699;BME280;70062;51.658;5.658;2023-07-29T10:40:19;100597.32;;;28.90;41.31
80699;BME280;70062;51.658;5.658;2023-07-29T10:45:26;100593.77;;;28.96;41.00
80699;BME280;70062;51.658;5.658;2023-07-29T10:47:52;100589.95;;;28.99;40.97
80699;BME280;70062;51.658;5.658;2023-07-29T10:50:19;100593.52;;;29.04;40.78
80699;BME280;70062;51.658;5.658;2023-07-29T10:52:49;100592.46;;;29.26;41.10
80699;BME280;70062;51.658;5.658;2023-07-29T10:55:34;100588.48;;;29.34;40.93
80699;BME280;70062;51.658;5.658;2023-07-29T11:00:33;100594.46;;;29.52;40.17
80699;BME280;70062;51.658;5.658;2023-07-29T11:03:01;100593.92;;;29.84;40.28
80699;BME280;70062;51.658;5.658;2023-07-29T11:05:44;100594.15;;;30.09;39.20
80699;BME280;70062;51.658;5.658;2023-07-29T11:08:28;100589.98;;;30.26;38.78
80699;BME280;70062;51.658;5.658;2023-07-29T11:13:33;100592.58;;;30.08;39.63
80699;BME280;70062;51.658;5.658;2023-07-29T11:15:59;100592.07;;;29.66;39.88
80699;BME280;70062;51.658;5.658;2023-07-29T11:18:30;100587.55;;;29.08;40.46
80699;BME280;70062;51.658;5.658;2023-07-29T11:20:56;100591.82;;;28.48;41.36
80699;BME280;70062;51.658;5.658;2023-07-29T11:23:28;100599.23;;;28.03;42.15
80699;BME280;70062;51.658;5.658;2023-07-29T11:25:54;100597.90;;;27.72;42.61
80699;BME280;70062;51.658;5.658;2023-07-29T11:28:19;100595.81;;;27.33;43.45
80699;BME280;70062;51.658;5.658;2023-07-29T11:30:45;100593.41;;;27.00;44.21
80699;BME280;70062;51.658;5.658;2023-07-29T11:33:10;100597.56;;;26.87;45.06
80699;BME280;70062;51.658;5.658;2023-07-29T11:35:36;100590.20;;;26.77;45.43
80699;BME280;70062;51.658;5.658;2023-07-29T11:38:02;100589.51;;;26.52;45.61
80699;BME280;70062;51.658;5.658;2023-07-29T11:40:28;100590.96;;;26.22;46.65
80699;BME280;70062;51.658;5.658;2023-07-29T11:42:54;100592.79;;;26.09;47.20
80699;BME280;70062;51.658;5.658;2023-07-29T11:45:20;100592.83;;;26.16;46.94
80699;BME280;70062;51.658;5.658;2023-07-29T11:47:46;100600.77;;;26.35;46.83
80699;BME280;70062;51.658;5.658;2023-07-29T11:50:13;100599.70;;;26.61;46.45
80699;BME280;70062;51.658;5.658;2023-07-29T11:52:40;100608.50;;;26.86;46.29
80699;BME280;70062;51.658;5.658;2023-07-29T11:55:06;100610.76;;;26.88;46.84
80699;BME280;70062;51.658;5.658;2023-07-29T11:57:39;100609.34;;;26.71;46.67
80699;BME280;70062;51.658;5.658;2023-07-29T12:00:07;100613.08;;;26.62;47.61
80699;BME280;70062;51.658;5.658;2023-07-29T12:02:37;100611.58;;;26.74;47.45
80699;BME280;70062;51.658;5.658;2023-07-29T12:05:06;100609.08;;;27.09;46.49
80699;BME280;70062;51.658;5.658;2023-07-29T12:07:35;100607.98;;;27.41;45.22
80699;BME280;70062;51.658;5.658;2023-07-29T12:10:02;100602.58;;;27.38;45.20
80699;BME280;70062;51.658;5.658;2023-07-29T12:12:28;100593.30;;;27.20;45.21
80699;BME280;70062;51.658;5.658;2023-07-29T12:14:54;100601.07;;;26.88;45.27
80699;BME280;70062;51.658;5.658;2023-07-29T12:17:20;100608.86;;;26.05;48.36
80699;BME280;70062;51.658;5.658;2023-07-29T12:19:46;100619.00;;;25.07;52.13
80699;BME280;70062;51.658;5.658;2023-07-29T12:22:11;100621.41;;;24.03;55.98
80699;BME280;70062;51.658;5.658;2023-07-29T12:24:38;100632.81;;;23.01;60.02
80699;BME280;70062;51.658;5.658;2023-07-29T12:27:04;100641.09;;;22.18;62.23
80699;BME280;70062;51.658;5.658;2023-07-29T12:29:30;100654.05;;;21.65;64.91
80699;BME280;70062;51.658;5.658;2023-07-29T12:32:02;100657.45;;;21.20;66.50
80699;BME280;70062;51.658;5.658;2023-07-29T12:34:29;100675.41;;;20.78;68.86
80699;BME280;70062;51.658;5.658;2023-07-29T12:36:57;100672.55;;;20.37;70.28
80699;BME280;70062;51.658;5.658;2023-07-29T12:39:30;100675.03;;;19.97;71.06
80699;BME280;70062;51.658;5.658;2023-07-29T12:41:58;100691.31;;;19.66;72.15
80699;BME280;70062;51.658;5.658;2023-07-29T12:44:25;100688.10;;;19.43;72.86
80699;BME280;70062;51.658;5.658;2023-07-29T12:46:51;100675.05;;;19.26;73.34
80699;BME280;70062;51.658;5.658;2023-07-29T12:49:17;100674.06;;;19.16;73.99
80699;BME280;70062;51.658;5.658;2023-07-29T12:51:43;100679.77;;;19.14;75.35
80699;BME280;70062;51.658;5.658;2023-07-29T12:54:09;100676.12;;;19.14;75.59
80699;BME280;70062;51.658;5.658;2023-07-29T12:56:34;100681.20;;;19.17;75.78
80699;BME280;70062;51.658;5.658;2023-07-29T12:59:00;100670.48;;;19.23;75.32
80699;BME280;70062;51.658;5.658;2023-07-29T13:01:27;100670.44;;;19.36;75.78